Time;durP1;ratioP1;P1;durP2;ratioP2;P2;SDS_P1;SDS_P2;PMS_P1;PMS_P2;Temp;Humidity;BMP_temperature;BMP_pressure;BME280_temperature;BME280_humidity;BME280_pressure;Samples;Min_cycle;Max_cycle;Signal;HPM_P1;HPM_P2
2022/05/27 00:01:15;;;;;;;0.50;0.40;;;;;;;20.48;100.00;95760.94;5092965;28;20499;-74
2022/05/27 00:03:44;;;;;;;0.80;0.30;;;;;;;20.72;100.00;95790.81;5094401;28;20436;-73
2022/05/27 00:06:12;;;;;;;0.40;0.20;;;;;;;20.56;100.00;95765.50;5094135;28;20424;-74
2022/05/27 00:08:41;;;;;;;1.90;1.80;;;;;;;20.60;100.00;95771.81;5094485;28;20447;-74
2022/05/27 00:11:12;;;;;;;0.87;0.87;;;;;;;20.37;100.00;95743.53;5094127;28;20527;-73
2022/05/27 00:13:41;;;;;;;0.40;0.30;;;;;;;20.61;100.00;95773.41;5094453;28;20493;-73
2022/05/27 00:16:09;;;;;;;1.53;1.07;;;;;;;20.67;100.00;95788.31;5092540;28;20456;-74
2022/05/27 00:18:38;;;;;;;1.13;0.70;;;;;;;20.72;100.00;95790.81;5093409;28;21026;-74
2022/05/27 00:21:06;;;;;;;0.57;0.50;;;;;;;20.10;100.00;95713.16;5093978;28;20479;-73
2022/05/27 00:23:35;;;;;;;0.90;0.53;;;;;;;20.41;100.00;95764.13;5094231;28;20852;-74
2022/05/27 00:26:03;;;;;;;0.60;0.30;;;;;;;20.50;100.00;95794.50;5094028;28;20408;-74
2022/05/27 00:28:33;;;;;;;1.87;1.03;;;;;;;20.33;100.00;95761.44;5093756;28;20515;-74
2022/05/27 00:31:03;;;;;;;0.50;0.30;;;;;;;20.10;100.00;95732.00;5093454;28;20471;-74
2022/05/27 00:33:32;;;;;;;3.17;1.17;;;;;;;19.12;100.00;95571.66;5093045;28;20428;-74
2022/05/27 00:36:00;;;;;;;0.50;0.40;;;;;;;20.12;100.00;95728.97;5094016;28;20490;-74
2022/05/27 00:38:29;;;;;;;0.70;0.50;;;;;;;20.23;100.00;95759.88;5093584;28;20520;-73
2022/05/27 00:40:57;;;;;;;0.60;0.40;;;;;;;18.73;100.00;95575.25;5093479;28;20460;-74
2022/05/27 00:43:25;;;;;;;0.40;0.30;;;;;;;19.87;100.00;95756.69;5093540;28;20511;-73
2022/05/27 00:46:00;;;;;;;1.17;1.07;;;;;;;18.69;100.00;95587.75;5092946;28;20478;-73
2022/05/27 00:48:29;;;;;;;0.53;0.53;;;;;;;19.68;100.00;95789.31;5092984;28;20432;-73
2022/05/27 00:50:58;;;;;;;0.60;0.50;;;;;;;19.40;100.00;95772.66;5093250;28;20543;-73
2022/05/27 00:53:34;;;;;;;2.67;0.70;;;;;;;19.02;100.00;95677.53;5093352;28;20424;-72
2022/05/27 00:56:05;;;;;;;0.50;0.40;;;;;;;19.76;100.00;95790.41;5092989;28;20474;-73
2022/05/27 00:58:41;;;;;;;6.80;0.40;;;;;;;19.85;100.00;95777.75;5093170;28;20432;-73
2022/05/27 01:01:13;;;;;;;0.60;0.33;;;;;;;19.88;100.00;95772.53;5092667;28;20511;-72
2022/05/27 01:03:43;;;;;;;0.70;0.63;;;;;;;18.62;100.00;95598.94;5092730;28;20460;-72
2022/05/27 01:06:11;;;;;;;0.60;0.40;;;;;;;19.84;100.00;95770.78;5093077;28;20433;-72
2022/05/27 01:08:40;;;;;;;0.60;0.40;;;;;;;19.73;100.00;95769.53;5092858;28;20916;-72
2022/05/27 01:11:18;;;;;;;3.37;0.40;;;;;;;19.66;100.00;95779.97;5092885;28;20519;-73
2022/05/27 01:14:03;;;;;;;0.77;0.50;;;;;;;19.53;100.00;95779.00;5093018;28;20496;-72
2022/05/27 01:16:42;;;;;;;0.50;0.40;;;;;;;19.62;100.00;95777.91;5092463;28;20448;-72
2022/05/27 01:22:42;;;;;;;0.53;0.40;;;;;;;19.63;100.00;95757.97;5091458;28;20424;-72
2022/05/27 01:25:45;;;;;;;0.50;0.30;;;;;;;19.71;100.00;95774.44;5091664;28;20834;-72
2022/05/27 01:28:39;;;;;;;1.50;0.73;;;;;;;19.74;100.00;95771.88;5079509;28;20489;-72
2022/05/27 01:31:20;;;;;;;0.53;0.47;;;;;;;19.79;100.00;95773.63;5086450;28;20447;-72
2022/05/27 01:34:03;;;;;;;0.50;0.40;;;;;;;19.39;100.00;95720.00;5091983;28;20436;-72
2022/05/27 01:36:40;;;;;;;1.27;1.17;;;;;;;19.66;100.00;95756.53;5091953;28;20421;-72
2022/05/27 01:39:15;;;;;;;0.40;0.30;;;;;;;18.54;100.00;95580.94;5092314;28;20455;-72
2022/05/27 01:41:51;;;;;;;0.40;0.37;;;;;;;19.30;100.00;95710.31;5091196;28;20517;-72
2022/05/27 01:44:27;;;;;;;0.50;0.50;;;;;;;18.73;100.00;95616.34;5092413;28;20470;-72
2022/05/27 01:46:57;;;;;;;0.50;0.30;;;;;;;19.70;100.00;95776.31;5097271;28;20455;-72
2022/05/27 01:49:35;;;;;;;0.40;0.30;;;;;;;19.68;100.00;95770.47;5099219;28;20444;-72
2022/05/27 01:52:11;;;;;;;0.50;0.50;;;;;;;19.42;100.00;95721.25;5092876;28;20485;-72
2022/05/27 01:54:49;;;;;;;0.40;0.20;;;;;;;19.71;100.00;95769.81;5092152;28;20423;-72
2022/05/27 01:57:24;;;;;;;0.53;0.47;;;;;;;19.44;100.00;95722.53;5092030;28;20428;-71
2022/05/27 02:00:02;;;;;;;1.03;1.03;;;;;;;19.74;100.00;95766.50;5093239;28;20515;-72
2022/05/27 02:02:34;;;;;;;7.07;0.60;;;;;;;19.69;100.00;95769.34;5095081;28;20503;-73
2022/05/27 02:05:08;;;;;;;0.50;0.30;;;;;;;19.62;100.00;95771.72;5095856;28;20501;-72
2022/05/27 02:07:40;;;;;;;22.57;0.90;;;;;;;19.41;100.00;95741.16;5095362;28;20424;-72
2022/05/27 02:10:25;;;;;;;0.50;0.40;;;;;;;19.47;100.00;95747.97;5096142;28;20454;-72
2022/05/27 02:12:58;;;;;;;0.50;0.30;;;;;;;18.71;100.00;95618.53;5096363;28;20870;-72
2022/05/27 02:15:31;;;;;;;0.43;0.27;;;;;;;19.63;100.00;95768.72;5096007;28;20473;-72
2022/05/27 02:18:06;;;;;;;0.80;0.50;;;;;;;19.29;100.00;95722.16;5095687;28;20582;-72
2022/05/27 02:20:39;;;;;;;1.50;0.50;;;;;;;19.39;100.00;95751.44;5095286;28;20465;-72
2022/05/27 02:23:14;;;;;;;1.07;0.60;;;;;;;19.55;100.00;95774.91;5094616;28;20428;-72
2022/05/27 02:25:46;;;;;;;0.40;0.30;;;;;;;19.35;100.00;95747.78;5096093;28;20478;-72
2022/05/27 02:28:18;;;;;;;0.70;0.70;;;;;;;19.43;100.00;95774.69;5096113;28;20834;-72
2022/05/27 02:30:50;;;;;;;1.00;0.60;;;;;;;19.18;100.00;95764.66;5095842;28;20499;-72
2022/05/27 02:36:16;;;;;;;0.40;0.30;;;;;;;17.84;100.00;95612.31;5095856;28;20849;-72
2022/05/27 02:38:45;;;;;;;0.50;0.30;;;;;;;19.00;100.00;95773.75;5094366;28;20464;-72
2022/05/27 02:41:24;;;;;;;0.47;0.30;;;;;;;18.94;100.00;95780.38;5095395;28;20860;-72
2022/05/27 02:44:08;;;;;;;0.40;0.30;;;;;;;18.85;100.00;95779.53;5095421;28;20481;-73
2022/05/27 02:46:49;;;;;;;0.40;0.30;;;;;;;17.64;100.00;95619.78;5095463;28;20428;-72
2022/05/27 02:49:27;;;;;;;0.40;0.33;;;;;;;18.68;100.00;95760.69;5095325;28;20456;-71
2022/05/27 02:52:06;;;;;;;0.87;0.77;;;;;;;18.85;100.00;95779.53;5095224;28;20503;-72
2022/05/27 02:54:43;;;;;;;2.10;0.60;;;;;;;17.73;100.00;95583.09;5095033;28;20882;-72
2022/05/27 02:57:19;;;;;;;0.80;0.67;;;;;;;18.98;100.00;95779.44;5095100;28;20504;-72
2022/05/27 02:59:48;;;;;;;0.77;0.60;;;;;;;18.84;100.00;95786.84;5095360;28;20946;-72
2022/05/27 03:02:18;;;;;;;0.50;0.40;;;;;;;18.69;100.00;95789.91;5095056;28;21046;-72
2022/05/27 03:04:50;;;;;;;4.20;0.50;;;;;;;18.65;100.00;95799.69;5095362;28;20432;-72
2022/05/27 03:07:38;;;;;;;2.93;1.17;;;;;;;18.69;100.00;95794.50;5095234;28;20432;-74
2022/05/27 03:10:26;;;;;;;0.77;0.77;;;;;;;18.65;100.00;95797.00;5094570;28;20936;-58
2022/05/27 03:13:12;;;;;;;0.60;0.40;;;;;;;18.69;100.00;95779.19;5094734;28;20519;-55
2022/05/27 03:15:53;;;;;;;0.40;0.30;;;;;;;19.06;100.00;95794.00;5094955;28;20432;-55
2022/05/27 03:18:33;;;;;;;1.43;0.63;;;;;;;18.87;100.00;95786.19;5094493;28;20472;-55
2022/05/27 03:21:12;;;;;;;0.50;0.50;;;;;;;18.23;100.00;95690.97;5094903;28;20427;-55
2022/05/27 03:24:04;;;;;;;3.13;0.50;;;;;;;18.15;100.00;95651.47;5094497;28;20459;-55
2022/05/27 03:26:42;;;;;;;0.47;0.30;;;;;;;19.35;100.00;95788.09;5093917;28;20494;-55
2022/05/27 03:29:22;;;;;;;0.50;0.30;;;;;;;19.30;100.00;95751.38;5093889;28;21005;-55
2022/05/27 03:31:59;;;;;;;0.50;0.40;;;;;;;19.83;100.00;95801.50;5094096;28;20524;-56
2022/05/27 03:34:36;;;;;;;1.13;0.70;;;;;;;19.83;100.00;95801.50;5093342;28;20477;-55
2022/05/27 03:37:11;;;;;;;0.40;0.30;;;;;;;19.74;100.00;95782.66;5094227;28;20416;-55
2022/05/27 03:39:45;;;;;;;0.40;0.40;;;;;;;19.62;100.00;95806.69;5094166;28;20888;-55
2022/05/27 03:42:14;;;;;;;0.50;0.50;;;;;;;19.52;100.00;95812.38;5094036;28;20571;-55
2022/05/27 03:44:51;;;;;;;0.40;0.30;;;;;;;19.69;100.00;95814.28;5093475;28;20460;-55
2022/05/27 03:47:20;;;;;;;0.40;0.20;;;;;;;20.00;100.00;95809.56;5093897;28;20759;-55
2022/05/27 03:49:48;;;;;;;1.33;0.30;;;;;;;19.84;100.00;95760.81;5093063;28;20440;-55
2022/05/27 03:52:23;;;;;;;2.00;0.90;;;;;;;19.90;100.00;95770.31;5093351;28;20955;-55
2022/05/27 03:54:51;;;;;;;1.27;0.80;;;;;;;19.85;100.00;95740.88;5094355;28;20510;-55
2022/05/27 03:57:21;;;;;;;0.60;0.40;;;;;;;19.23;100.00;95653.53;5094213;28;20812;-55
2022/05/27 03:59:49;;;;;;;0.40;0.30;;;;;;;19.61;100.00;95741.34;5094241;28;20828;-55
2022/05/27 04:02:18;;;;;;;0.63;0.63;;;;;;;20.18;100.00;95811.16;5093447;28;20581;-54
2022/05/27 04:04:46;;;;;;;0.50;0.40;;;;;;;19.13;100.00;95643.06;5094168;28;20455;-54
2022/05/27 04:07:15;;;;;;;0.60;0.57;;;;;;;20.16;100.00;95816.84;5092826;28;20793;-55
2022/05/27 04:09:44;;;;;;;0.60;0.60;;;;;;;19.87;100.00;95803.22;5093466;28;20944;-55
2022/05/27 04:12:14;;;;;;;0.50;0.37;;;;;;;19.48;100.00;95817.56;5093674;28;20519;-55
2022/05/27 04:14:42;;;;;;;0.50;0.50;;;;;;;19.94;100.00;95806.25;5093542;28;20740;-55
2022/05/27 04:17:30;;;;;;;0.83;0.77;;;;;;;20.07;100.00;95813.38;5092966;28;20486;-56
2022/05/27 04:20:00;;;;;;;0.47;0.40;;;;;;;20.18;100.00;95813.84;5092833;28;20435;-55
2022/05/27 04:22:29;;;;;;;0.83;0.83;;;;;;;18.89;100.00;95652.41;5091492;28;20472;-55
2022/05/27 04:24:59;;;;;;;0.60;0.53;;;;;;;19.89;100.00;95809.09;5091469;28;20516;-55
2022/05/27 04:27:27;;;;;;;1.50;0.40;;;;;;;19.78;100.00;95805.13;5093659;28;20462;-55
2022/05/27 04:29:56;;;;;;;0.50;0.33;;;;;;;20.06;100.00;95811.00;5093237;28;20471;-55
2022/05/27 04:32:26;;;;;;;2.40;0.40;;;;;;;20.40;100.00;95807.50;5093063;28;20494;-54
2022/05/27 04:34:55;;;;;;;0.50;0.50;;;;;;;20.20;100.00;95772.03;5092979;28;20973;-55
2022/05/27 04:37:25;;;;;;;0.40;0.30;;;;;;;20.49;100.00;95806.38;5091654;28;20438;-54
2022/05/27 04:39:54;;;;;;;0.40;0.30;;;;;;;20.63;100.00;95807.00;5092811;28;20479;-54
2022/05/27 04:42:24;;;;;;;0.97;0.60;;;;;;;20.43;100.00;95807.69;5093200;28;20510;-54
2022/05/27 04:44:52;;;;;;;0.40;0.30;;;;;;;20.67;100.00;95812.53;5092780;28;20464;-54
2022/05/27 04:47:21;;;;;;;0.43;0.30;;;;;;;20.67;100.00;95794.47;5092567;28;20459;-54
2022/05/27 04:49:53;;;;;;;0.70;0.33;;;;;;;20.59;100.00;95814.13;5091535;28;20464;-54
2022/05/27 04:52:25;;;;;;;0.40;0.30;;;;;;;20.62;100.00;95808.09;5091252;28;20631;-54
2022/05/27 04:54:55;;;;;;;0.60;0.40;;;;;;;20.92;100.00;95807.06;5092151;28;20424;-54
2022/05/27 04:57:31;;;;;;;2.00;1.27;;;;;;;20.75;100.00;95812.50;5092975;28;20427;-53
2022/05/27 05:00:00;;;;;;;1.57;0.40;;;;;;;21.00;100.00;95818.91;5092496;28;20458;-53
2022/05/27 05:02:28;;;;;;;1.17;1.07;;;;;;;20.81;100.00;95802.34;5092811;28;20517;-53
2022/05/27 05:05:04;;;;;;;0.80;0.53;;;;;;;20.97;100.00;95814.19;5092543;28;20432;-53
2022/05/27 05:07:34;;;;;;;0.70;0.70;;;;;;;21.12;100.00;95821.78;5091888;28;20532;-53
2022/05/27 05:10:04;;;;;;;0.63;0.60;;;;;;;21.25;100.00;95820.00;5092627;28;20436;-58
2022/05/27 05:12:34;;;;;;;0.60;0.40;;;;;;;21.37;100.00;95809.28;5092840;28;20884;-53
2022/05/27 05:15:02;;;;;;;0.40;0.30;;;;;;;21.69;100.00;95819.41;5091879;28;20436;-53
2022/05/27 05:17:31;;;;;;;0.77;0.40;;;;;;;21.70;100.00;95828.31;5091765;28;20511;-52
2022/05/27 05:19:59;;;;;;;0.77;0.77;;;;;;;21.41;100.00;95765.16;5091230;28;20468;-52
2022/05/27 05:22:27;;;;;;;0.50;0.30;;;;;;;22.00;100.00;95825.28;5091277;28;20465;-52
2022/05/27 05:24:56;;;;;;;1.03;1.03;;;;;;;21.61;100.00;95758.19;5091973;28;20499;-52
2022/05/27 05:27:27;;;;;;;2.80;0.83;;;;;;;22.19;100.00;95819.38;5092187;28;20447;-52
2022/05/27 05:29:58;;;;;;;0.50;0.40;;;;;;;22.27;100.00;95807.72;5092372;28;20424;-52
2022/05/27 05:32:26;;;;;;;0.63;0.63;;;;;;;22.28;100.00;95808.53;5092226;28;20482;-52
2022/05/27 05:34:55;;;;;;;3.63;0.73;;;;;;;22.56;100.00;95815.75;5091774;28;20421;-52
2022/05/27 05:37:24;;;;;;;0.50;0.37;;;;;;;22.56;100.00;95813.03;5092191;28;20424;-52
2022/05/27 05:39:53;;;;;;;2.10;1.00;;;;;;;22.69;100.00;95813.88;5092195;28;20509;-52
2022/05/27 05:42:21;;;;;;;0.50;0.40;;;;;;;22.92;100.00;95833.22;5092169;28;20479;-52
2022/05/27 05:44:50;;;;;;;4.77;2.07;;;;;;;22.77;100.00;95807.59;5092238;28;20428;-52
2022/05/27 05:47:20;;;;;;;1.20;1.20;;;;;;;22.99;98.57;95811.81;5092372;28;20432;-53
2022/05/27 05:49:49;;;;;;;10.80;1.40;;;;;;;23.04;96.49;95809.69;5091448;28;20437;-53
2022/05/27 05:52:17;;;;;;;0.70;0.43;;;;;;;23.03;95.37;95793.78;5092276;28;20428;-52
2022/05/27 05:54:45;;;;;;;1.17;1.17;;;;;;;23.22;99.38;95788.63;5092031;28;20932;-52
2022/05/27 05:57:14;;;;;;;1.50;0.63;;;;;;;23.57;96.89;95806.00;5092387;28;20433;-53
2022/05/27 05:59:42;;;;;;;0.70;0.40;;;;;;;23.88;98.23;95797.28;5091641;28;20956;-53
2022/05/27 06:02:11;;;;;;;1.50;0.90;;;;;;;23.97;100.00;95801.44;5091642;28;20501;-53
2022/05/27 06:04:41;;;;;;;0.80;0.80;;;;;;;23.45;97.88;95792.50;5092005;28;20522;-53
2022/05/27 06:07:14;;;;;;;10.20;1.63;;;;;;;22.57;100.00;95803.78;5091890;28;20436;-53
2022/05/27 06:09:42;;;;;;;0.70;0.70;;;;;;;22.88;100.00;95802.53;5092009;28;20974;-53
2022/05/27 06:12:12;;;;;;;1.20;1.10;;;;;;;23.52;99.28;95798.13;5092371;28;20481;-53
2022/05/27 06:14:40;;;;;;;2.90;1.90;;;;;;;22.71;100.00;95798.13;5092110;28;20481;-53
2022/05/27 06:17:08;;;;;;;0.97;0.97;;;;;;;23.32;100.00;95771.94;5091726;28;20567;-52
2022/05/27 06:19:37;;;;;;;0.80;0.80;;;;;;;23.75;98.32;95791.09;5091779;28;20840;-53
2022/05/27 06:22:07;;;;;;;0.50;0.50;;;;;;;24.22;94.36;95787.81;5091998;28;20463;-54
2022/05/27 06:24:35;;;;;;;0.57;0.57;;;;;;;24.57;91.47;95784.19;5091976;28;20638;-54
2022/05/27 06:27:06;;;;;;;3.97;0.80;;;;;;;24.39;90.49;95788.31;5091703;28;20439;-54
2022/05/27 06:35:07;;;;;;;1.00;0.90;;;;;;;25.07;84.10;95770.00;5091619;28;20778;-54
2022/05/27 06:37:37;;;;;;;2.03;0.53;;;;;;;25.82;80.24;95777.97;5091622;28;20515;-54
2022/05/27 06:40:07;;;;;;;0.73;0.60;;;;;;;25.68;78.46;95778.44;5091806;28;20459;-54
2022/05/27 06:42:37;;;;;;;0.50;0.40;;;;;;;25.64;77.28;95769.44;5091513;28;20507;-53
2022/05/27 06:45:08;;;;;;;0.53;0.37;;;;;;;26.46;73.38;95774.69;5091612;28;20505;-53
2022/05/27 06:47:37;;;;;;;1.23;1.23;;;;;;;26.61;71.21;95724.06;5095001;28;20481;-53
2022/05/27 06:50:08;;;;;;;0.43;0.40;;;;;;;27.18;69.75;95775.59;5095467;28;20539;-53
2022/05/27 06:52:40;;;;;;;0.50;0.40;;;;;;;27.22;68.62;95771.03;5095214;28;20889;-53
2022/05/27 06:55:09;;;;;;;0.93;0.70;;;;;;;27.55;65.15;95760.28;5095497;28;20511;-53
2022/05/27 06:57:38;;;;;;;2.30;0.60;;;;;;;27.41;64.25;95743.72;5095107;28;20463;-54
2022/05/27 07:00:10;;;;;;;0.77;0.50;;;;;;;27.54;64.48;95756.00;5095058;28;20489;-54
2022/05/27 07:02:38;;;;;;;0.50;0.40;;;;;;;27.55;61.56;95757.53;5094752;28;20460;-54
2022/05/27 07:05:08;;;;;;;2.87;1.77;;;;;;;26.94;64.45;95763.16;5094079;28;20472;-55
2022/05/27 07:07:38;;;;;;;0.90;0.60;;;;;;;26.17;65.39;95631.25;5094152;28;20919;-56
2022/05/27 07:10:07;;;;;;;4.20;0.70;;;;;;;27.39;62.68;95739.81;5094903;28;20450;-55
2022/05/27 07:12:37;;;;;;;0.70;0.70;;;;;;;27.15;67.83;95753.78;5095196;28;20463;-55
2022/05/27 07:15:06;;;;;;;0.77;0.77;;;;;;;27.65;67.08;95746.03;5094800;28;20472;-57
2022/05/27 07:17:36;;;;;;;0.50;0.47;;;;;;;28.19;63.09;95742.09;5094331;28;21054;-57
2022/05/27 07:20:05;;;;;;;0.40;0.40;;;;;;;28.56;58.97;95731.22;5093795;28;20523;-57
2022/05/27 07:22:33;;;;;;;0.80;0.50;;;;;;;28.86;53.75;95723.75;5094325;28;20495;-56
2022/05/27 07:25:03;;;;;;;0.50;0.40;;;;;;;28.07;53.11;95663.28;5094665;28;20511;-56
2022/05/27 07:27:32;;;;;;;0.97;0.87;;;;;;;29.03;52.57;95711.41;5094830;28;20459;-55
2022/05/27 07:30:00;;;;;;;1.20;1.20;;;;;;;29.50;54.18;95719.56;5094815;28;20432;-55
2022/05/27 07:32:29;;;;;;;0.40;0.30;;;;;;;29.59;52.84;95728.25;5094627;28;20428;-56
2022/05/27 07:34:57;;;;;;;0.70;0.43;;;;;;;30.27;49.75;95721.16;5094680;28;20854;-55
2022/05/27 07:37:26;;;;;;;0.53;0.53;;;;;;;29.59;51.33;95714.56;5094725;28;20455;-55
2022/05/27 07:39:55;;;;;;;0.63;0.63;;;;;;;30.07;48.77;95709.78;5094619;28;20456;-55
2022/05/27 07:42:24;;;;;;;0.63;0.63;;;;;;;29.39;47.82;95716.81;5093684;28;20470;-55
2022/05/27 07:44:53;;;;;;;0.50;0.50;;;;;;;29.91;48.25;95712.03;5094635;28;20464;-55
2022/05/27 07:47:22;;;;;;;0.50;0.33;;;;;;;30.73;46.74;95709.22;5094516;28;20507;-55
2022/05/27 07:49:51;;;;;;;0.50;0.47;;;;;;;31.25;46.45;95702.22;5094218;28;20471;-54
2022/05/27 07:52:19;;;;;;;1.70;0.50;;;;;;;31.08;42.00;95704.97;5094138;28;20932;-54
2022/05/27 07:54:50;;;;;;;0.90;0.80;;;;;;;29.74;43.87;95688.91;5094079;28;20467;-54
2022/05/27 07:57:24;;;;;;;0.50;0.50;;;;;;;30.35;42.50;95679.81;5092450;28;20481;-54
2022/05/27 08:00:00;;;;;;;0.50;0.43;;;;;;;30.91;44.05;95695.56;5094110;28;20432;-54
2022/05/27 08:02:29;;;;;;;1.80;1.13;;;;;;;31.15;42.98;95686.56;5094323;28;20855;-55
2022/05/27 08:04:58;;;;;;;0.40;0.40;;;;;;;32.16;40.99;95688.72;5093774;28;20536;-54
2022/05/27 08:07:28;;;;;;;0.50;0.50;;;;;;;31.74;41.63;95687.69;5093982;28;20462;-55
2022/05/27 08:09:56;;;;;;;0.57;0.57;;;;;;;31.90;41.40;95670.78;5093721;28;20472;-55
2022/05/27 08:12:26;;;;;;;0.60;0.50;;;;;;;31.90;40.20;95677.03;5093862;28;20889;-55
2022/05/27 08:14:55;;;;;;;0.93;0.93;;;;;;;31.18;39.65;95663.88;5093734;28;20993;-56
2022/05/27 08:17:24;;;;;;;0.90;0.87;;;;;;;31.18;39.89;95636.50;5093380;28;20463;-55
2022/05/27 08:19:53;;;;;;;0.40;0.30;;;;;;;32.04;42.27;95678.97;5093826;28;20833;-55
2022/05/27 08:22:22;;;;;;;0.97;0.40;;;;;;;31.78;38.94;95554.13;5093778;28;20523;-55
2022/05/27 08:24:50;;;;;;;1.07;1.07;;;;;;;31.60;39.29;95663.03;5093193;28;20475;-54
2022/05/27 08:27:18;;;;;;;0.50;0.50;;;;;;;32.03;38.98;95658.22;5093276;28;20546;-54
2022/05/27 08:29:48;;;;;;;0.40;0.40;;;;;;;31.82;40.02;95508.28;5093325;28;20428;-54
2022/05/27 08:32:17;;;;;;;6.10;1.37;;;;;;;32.34;37.67;95646.31;5093068;28;20427;-53
2022/05/27 08:40:31;;;;;;;0.90;0.57;;;;;;;33.33;37.97;95651.06;5093074;28;20467;-54
2022/05/27 08:43:06;;;;;;;0.60;0.60;;;;;;;29.52;36.86;95051.59;5093075;28;20424;-53
2022/05/27 08:45:41;;;;;;;1.07;0.40;;;;;;;33.59;35.52;95619.41;5092920;28;20557;-53
2022/05/27 08:48:11;;;;;;;0.77;0.63;;;;;;;33.90;36.76;95628.50;5092974;28;20431;-53
2022/05/27 08:50:44;;;;;;;0.67;0.67;;;;;;;32.38;37.65;95575.75;5092764;28;20475;-53
2022/05/27 08:53:18;;;;;;;3.40;3.30;;;;;;;32.90;37.95;95620.44;5092911;28;20928;-53
2022/05/27 09:01:32;;;;;;;0.60;0.60;;;;;;;33.54;38.00;95626.13;5092999;28;20460;-53
2022/05/27 09:04:07;;;;;;;1.23;0.67;;;;;;;34.30;34.94;95589.06;5092536;28;20436;-53
2022/05/27 09:06:40;;;;;;;0.67;0.67;;;;;;;33.84;37.00;95543.69;5093059;28;21004;-53
2022/05/27 09:09:18;;;;;;;0.50;0.40;;;;;;;33.90;37.63;95612.00;5092733;28;20510;-53
2022/05/27 09:12:11;;;;;;;0.97;0.67;;;;;;;34.25;38.31;95617.03;5092692;28;20958;-53
2022/05/27 09:14:46;;;;;;;0.60;0.60;;;;;;;33.57;39.22;95617.09;5092418;28;20519;-53
2022/05/27 09:17:34;;;;;;;0.40;0.40;;;;;;;32.32;40.18;95615.75;5092045;28;20895;-54
2022/05/27 09:20:14;;;;;;;0.63;0.60;;;;;;;32.69;39.28;95611.59;5092334;28;20496;-54
2022/05/27 09:22:51;;;;;;;0.70;0.40;;;;;;;33.51;40.35;95613.19;5092531;28;20858;-53
2022/05/27 09:25:24;;;;;;;6.90;0.70;;;;;;;34.08;37.14;95596.06;5092616;28;20467;-53
2022/05/27 09:28:01;;;;;;;0.73;0.50;;;;;;;34.36;39.95;95552.38;5092626;28;20459;-53
2022/05/27 09:30:33;;;;;;;0.67;0.60;;;;;;;35.37;36.28;95589.66;5092538;28;20564;-53
2022/05/27 09:33:06;;;;;;;0.73;0.73;;;;;;;35.70;34.76;95579.59;5092484;28;20426;-53
2022/05/27 09:35:42;;;;;;;0.50;0.47;;;;;;;35.20;34.75;95549.44;5092086;28;20517;-53
2022/05/27 09:38:16;;;;;;;1.00;0.80;;;;;;;35.77;35.26;95567.66;5091592;28;21033;-53
2022/05/27 09:40:48;;;;;;;1.20;0.53;;;;;;;35.17;34.14;95547.50;5092324;28;20481;-53
2022/05/27 09:43:25;;;;;;;0.40;0.40;;;;;;;35.51;36.04;95574.81;5092145;28;20515;-52
2022/05/27 09:45:58;;;;;;;1.33;1.23;;;;;;;34.14;38.18;95551.16;5091308;28;20584;-52
2022/05/27 09:48:28;;;;;;;0.47;0.43;;;;;;;34.59;38.04;95553.63;5091830;28;20185;-52
2022/05/27 09:51:00;;;;;;;0.73;0.73;;;;;;;34.29;38.81;95518.69;5091778;28;20510;-52
2022/05/27 09:53:34;;;;;;;1.10;1.07;;;;;;;33.60;40.82;95483.53;5091049;28;20856;-52
2022/05/27 09:56:05;;;;;;;0.93;0.90;;;;;;;30.60;42.14;95135.41;5092318;28;20511;-53
2022/05/27 09:58:37;;;;;;;2.40;2.30;;;;;;;33.66;41.72;95548.63;5092025;28;20423;-52
2022/05/27 10:01:21;;;;;;;1.83;1.07;;;;;;;33.25;41.42;95545.94;5091848;28;20522;-52
2022/05/27 10:04:02;;;;;;;1.33;1.23;;;;;;;34.27;38.27;95538.38;5091269;28;20428;-52
2022/05/27 10:06:34;;;;;;;1.00;1.00;;;;;;;34.78;39.40;95539.16;5091996;28;20894;-53
2022/05/27 10:09:05;;;;;;;0.87;0.40;;;;;;;34.75;37.98;95504.19;5091900;28;20452;-54
2022/05/27 10:11:36;;;;;;;0.47;0.30;;;;;;;34.78;38.81;95533.66;5091882;28;20967;-54
2022/05/27 10:14:22;;;;;;;0.63;0.60;;;;;;;35.50;37.02;95526.38;5091882;28;20420;-54
2022/05/27 10:17:07;;;;;;;0.73;0.73;;;;;;;36.04;35.41;95510.31;5091469;28;20462;-54
2022/05/27 10:19:45;;;;;;;0.40;0.40;;;;;;;36.52;34.24;95509.59;5092050;28;20485;-54
2022/05/27 10:22:24;;;;;;;0.40;0.40;;;;;;;36.18;35.25;95504.47;5094905;28;20665;-52
2022/05/27 10:24:59;;;;;;;0.60;0.50;;;;;;;35.72;35.60;95497.22;5095899;28;20426;-53
2022/05/27 10:27:34;;;;;;;0.40;0.30;;;;;;;35.65;37.81;95500.88;5095807;28;20193;-52
2022/05/27 10:30:07;;;;;;;0.70;0.70;;;;;;;35.81;36.16;95491.09;5095628;28;20201;-52
2022/05/27 10:32:41;;;;;;;0.60;0.60;;;;;;;36.26;35.66;95483.75;5095507;28;20185;-53
2022/05/27 10:35:33;;;;;;;0.97;0.50;;;;;;;35.79;35.95;95482.47;5095470;28;20277;-53
2022/05/27 10:38:14;;;;;;;0.50;0.50;;;;;;;35.91;35.99;95482.59;5095402;28;20263;-60
2022/05/27 10:40:51;;;;;;;0.50;0.50;;;;;;;36.37;37.11;95475.22;5102564;28;20212;-60
2022/05/27 10:43:33;;;;;;;0.80;0.80;;;;;;;36.55;34.68;95472.84;5095879;28;20189;-61
2022/05/27 10:46:07;;;;;;;0.40;0.30;;;;;;;35.85;36.63;95467.75;5095619;28;20209;-61
2022/05/27 10:49:05;;;;;;;0.50;0.40;;;;;;;36.13;33.98;95461.59;5095416;28;20190;-60
2022/05/27 10:51:49;;;;;;;2.60;0.80;;;;;;;36.35;34.34;95466.59;5051398;28;20272;-60
2022/05/27 10:54:51;;;;;;;0.60;0.60;;;;;;;37.09;32.91;95454.41;5095450;28;20225;-59
2022/05/27 11:03:50;;;;;;;0.40;0.40;;;;;;;35.58;33.03;95431.31;5094776;28;20191;-59
2022/05/27 11:06:32;;;;;;;0.50;0.50;;;;;;;37.18;33.49;95415.09;5086133;28;20228;-59
2022/05/27 11:09:14;;;;;;;3.80;0.80;;;;;;;37.68;31.46;95411.63;5095072;28;20227;-59
2022/05/27 11:11:47;;;;;;;0.40;0.40;;;;;;;37.86;30.75;95407.13;5095175;28;20187;-59
2022/05/27 11:17:22;;;;;;;1.43;0.50;;;;;;;37.65;26.50;95393.19;5094519;28;20314;-59
2022/05/27 11:20:24;;;;;;;0.50;0.50;;;;;;;36.89;25.24;95387.44;5094645;28;20281;-59
2022/05/27 11:23:05;;;;;;;0.70;0.50;;;;;;;36.70;24.80;95380.09;5094606;28;20191;-60
2022/05/27 11:25:49;;;;;;;0.50;0.30;;;;;;;37.44;25.05;95375.25;5094806;28;20215;-60
2022/05/27 11:28:35;;;;;;;0.63;0.63;;;;;;;37.81;24.96;95365.38;5094335;28;20195;-60
2022/05/27 11:31:18;;;;;;;0.75;0.75;;;;;;;37.88;24.82;95367.94;5094641;28;20647;-60
2022/05/27 11:33:56;;;;;;;1.05;0.50;;;;;;;37.73;25.18;95358.50;5092998;28;20277;-60
2022/05/27 11:36:47;;;;;;;0.40;0.30;;;;;;;37.64;27.28;95363.97;5094256;28;20296;-60
2022/05/27 11:39:47;;;;;;;0.75;0.55;;;;;;;37.95;28.75;95356.66;5094241;28;20220;-60
2022/05/27 11:42:39;;;;;;;1.13;0.43;;;;;;;36.88;28.77;95352.75;5093578;28;20271;-60
2022/05/27 11:45:17;;;;;;;0.68;0.63;;;;;;;37.50;28.79;95357.66;5091736;28;20633;-60
2022/05/27 11:48:06;;;;;;;0.60;0.60;;;;;;;37.14;25.79;95337.78;5093714;28;20622;-60
2022/05/27 11:50:50;;;;;;;0.40;0.40;;;;;;;36.37;26.04;95337.19;5094107;28;20281;-60
2022/05/27 11:53:34;;;;;;;0.40;0.30;;;;;;;36.79;25.51;95330.50;5094154;28;20714;-60
2022/05/27 11:56:11;;;;;;;0.30;0.30;;;;;;;36.58;26.39;95278.66;5093972;28;20238;-61
2022/05/27 11:58:49;;;;;;;0.45;0.43;;;;;;;36.98;26.19;95312.25;5093978;28;20225;-61
2022/05/27 12:01:29;;;;;;;0.40;0.30;;;;;;;36.61;25.41;95314.44;5094230;28;20668;-61
2022/05/27 12:04:11;;;;;;;0.40;0.30;;;;;;;37.17;25.71;95312.03;5093945;28;20192;-61
2022/05/27 12:06:45;;;;;;;1.52;1.05;;;;;;;35.56;25.29;95301.38;5093966;28;20212;-61
2022/05/27 12:09:23;;;;;;;0.50;0.50;;;;;;;35.61;26.40;95307.16;5093631;28;20654;-61
2022/05/27 12:11:56;;;;;;;0.50;0.50;;;;;;;35.28;26.85;95302.81;5093840;28;20247;-62
2022/05/27 12:14:32;;;;;;;2.73;0.73;;;;;;;34.78;26.97;95303.09;5093849;28;20221;-61
2022/05/27 12:17:03;;;;;;;0.50;0.50;;;;;;;35.81;28.15;95298.78;5093357;28;20333;-61
2022/05/27 12:19:35;;;;;;;0.80;0.50;;;;;;;36.49;26.69;95297.81;5093399;28;20252;-61
2022/05/27 12:22:11;;;;;;;1.60;0.50;;;;;;;35.88;26.55;95256.44;5093263;28;20230;-61
2022/05/27 12:24:43;;;;;;;0.60;0.57;;;;;;;35.58;26.69;95276.91;5093549;28;20217;-62
2022/05/27 12:27:15;;;;;;;4.10;2.70;;;;;;;35.44;26.82;95285.50;5093234;28;20202;-61
2022/05/27 12:29:47;;;;;;;0.50;0.40;;;;;;;36.26;26.19;95276.75;5093023;28;20191;-61
2022/05/27 12:32:18;;;;;;;0.60;0.60;;;;;;;36.60;26.47;95277.00;5092965;28;20266;-61